Time,TemperatureF,DewpointF,PressureIn,WindDirection,WindDirectionDegrees,WindSpeedMPH,WindSpeedGustMPH,Humidity,HourlyPrecipIn,Conditions,Clouds,dailyrainin,SoftwareType,DateUTC
2013-11-15 00:00:00,48.0,36.0,-100.00,SE,138,4.0,-999.0,63,0.00,,,0.00,,2013-11-15 06:00:00,
2013-11-15 00:44:00,48.0,36.0,-100.00,SE,138,4.0,-999.0,63,0.00,,,0.00,,2013-11-15 06:44:00,
2013-11-15 00:53:00,48.0,36.0,-100.00,SE,138,4.0,-999.0,63,0.00,,,0.00,,2013-11-15 06:53:00,
2013-11-15 01:00:00,48.0,36.0,-100.00,SE,146,6.0,-999.0,63,0.00,,,0.00,,2013-11-15 07:00:00,
2013-11-15 01:42:00,48.0,36.0,-100.00,SE,146,6.0,-999.0,63,0.00,,,0.00,,2013-11-15 07:42:00,
2013-11-15 01:52:00,48.0,36.0,-100.00,SE,146,6.0,-999.0,63,0.00,,,0.00,,2013-11-15 07:52:00,
2013-11-15 02:00:00,48.0,38.0,-100.00,SE,143,5.0,-999.0,67,0.00,,,0.00,,2013-11-15 08:00:00,
2013-11-15 02:42:00,48.0,38.0,-100.00,SE,143,5.0,-999.0,67,0.00,,,0.00,,2013-11-15 08:42:00,
2013-11-15 02:52:00,48.0,38.0,-100.00,SE,143,5.0,-999.0,67,0.00,,,0.00,,2013-11-15 08:52:00,
2013-11-15 03:00:00,48.0,41.0,-100.00,SSE,150,7.0,-999.0,77,0.00,,,0.00,,2013-11-15 09:00:00,
2013-11-15 03:43:00,48.0,41.0,-100.00,SSE,150,7.0,-999.0,77,0.00,,,0.00,,2013-11-15 09:43:00,
2013-11-15 03:53:00,48.0,41.0,-100.00,SSE,150,7.0,-999.0,77,0.00,,,0.00,,2013-11-15 09:53:00,
2013-11-15 04:00:00,46.0,44.0,-100.00,SSE,152,8.0,-999.0,94,0.00,,,0.00,,2013-11-15 10:00:00,
2013-11-15 04:43:00,46.0,44.0,-100.00,SSE,152,8.0,-999.0,94,0.00,,,0.00,,2013-11-15 10:43:00,
2013-11-15 04:52:00,46.0,44.0,-100.00,SSE,152,8.0,-999.0,94,0.00,,,0.00,,2013-11-15 10:52:00,
2013-11-15 05:00:00,46.0,46.0,-100.00,SE,132,6.0,-999.0,99,0.00,,,0.00,,2013-11-15 11:00:00,
2013-11-15 05:42:00,46.0,46.0,-100.00,SE,132,6.0,-999.0,99,0.00,,,0.00,,2013-11-15 11:42:00,
2013-11-15 05:52:00,46.0,46.0,-100.00,SE,132,6.0,-999.0,99,0.00,,,0.00,,2013-11-15 11:52:00,
2013-11-15 06:00:00,46.0,45.0,-100.00,SE,137,6.0,-999.0,98,0.00,,,0.00,,2013-11-15 12:00:00,
2013-11-15 06:42:00,46.0,45.0,-100.00,SE,137,6.0,-999.0,98,0.00,,,0.00,,2013-11-15 12:42:00,
2013-11-15 06:52:00,46.0,45.0,-100.00,SE,137,6.0,-999.0,98,0.00,,,0.00,,2013-11-15 12:52:00,
2013-11-15 07:00:00,46.0,46.0,-100.00,SE,139,8.0,-999.0,100,0.00,,,0.00,,2013-11-15 13:00:00,
2013-11-15 07:42:00,46.0,46.0,-100.00,SE,139,8.0,-999.0,100,0.00,,,0.00,,2013-11-15 13:42:00,
2013-11-15 07:52:00,46.0,46.0,-100.00,SE,139,8.0,-999.0,100,0.00,,,0.00,,2013-11-15 13:52:00,
2013-11-15 08:00:00,46.0,46.0,-100.00,SSE,153,5.0,-999.0,100,0.00,,,0.00,,2013-11-15 14:00:00,
2013-11-15 08:42:00,46.0,46.0,-100.00,SSE,153,5.0,-999.0,100,0.00,,,0.00,,2013-11-15 14:42:00,
2013-11-15 08:52:00,46.0,46.0,-100.00,SSE,153,5.0,-999.0,100,0.00,,,0.00,,2013-11-15 14:52:00,
2013-11-15 10:00:00,48.0,48.0,-100.00,SE,135,6.0,-999.0,101,0.00,,,0.00,,2013-11-15 16:00:00,
2013-11-15 10:43:00,48.0,48.0,-100.00,SE,135,6.0,-999.0,101,0.00,,,0.00,,2013-11-15 16:43:00,
2013-11-15 10:53:00,48.0,48.0,-100.00,SE,135,6.0,-999.0,101,0.00,,,0.00,,2013-11-15 16:53:00,
2013-11-15 11:00:00,49.0,49.0,-100.00,SE,140,7.0,-999.0,101,0.00,,,0.00,,2013-11-15 17:00:00,
2013-11-15 11:42:00,49.0,49.0,-100.00,SE,140,7.0,-999.0,101,0.00,,,0.00,,2013-11-15 17:42:00,
2013-11-15 11:52:00,49.0,49.0,-100.00,SE,140,7.0,-999.0,101,0.00,,,0.00,,2013-11-15 17:52:00,
2013-11-15 12:00:00,52.0,52.0,-100.00,SSE,160,5.0,-999.0,101,0.00,,,0.00,,2013-11-15 18:00:00,
2013-11-15 12:42:00,52.0,52.0,-100.00,SSE,160,5.0,-999.0,101,0.00,,,0.00,,2013-11-15 18:42:00,
2013-11-15 12:52:00,52.0,52.0,-100.00,SSE,160,5.0,-999.0,101,0.00,,,0.00,,2013-11-15 18:52:00,
2013-11-15 13:00:00,51.0,51.0,-100.00,SSE,149,6.0,-999.0,101,0.00,,,0.00,,2013-11-15 19:00:00,
2013-11-15 13:42:00,51.0,51.0,-100.00,SSE,149,6.0,-999.0,101,0.00,,,0.00,,2013-11-15 19:42:00,
2013-11-15 13:52:00,51.0,51.0,-100.00,SSE,149,6.0,-999.0,101,0.00,,,0.00,,2013-11-15 19:52:00,
2013-11-15 14:00:00,53.0,53.0,-100.00,SSE,151,5.0,-999.0,101,0.00,,,0.00,,2013-11-15 20:00:00,
2013-11-15 14:42:00,53.0,53.0,-100.00,SSE,151,5.0,-999.0,101,0.00,,,0.00,,2013-11-15 20:42:00,
2013-11-15 14:52:00,53.0,53.0,-100.00,SSE,151,5.0,-999.0,101,0.00,,,0.00,,2013-11-15 20:52:00,
2013-11-15 15:00:00,53.0,53.0,-100.00,SE,126,7.0,-999.0,101,0.00,,,0.00,,2013-11-15 21:00:00,
2013-11-15 15:43:00,53.0,53.0,-100.00,SE,126,7.0,-999.0,101,0.00,,,0.00,,2013-11-15 21:43:00,
2013-11-15 15:55:00,53.0,53.0,-100.00,SE,126,7.0,-999.0,101,0.00,,,0.00,,2013-11-15 21:55:00,
2013-11-15 17:00:00,53.0,53.0,-100.00,SE,128,5.0,-999.0,102,0.00,,,0.00,,2013-11-15 23:00:00,
2013-11-15 17:43:00,53.0,53.0,-100.00,SE,128,5.0,-999.0,102,0.00,,,0.00,,2013-11-15 23:43:00,
2013-11-15 17:52:00,53.0,53.0,-100.00,SE,128,5.0,-999.0,102,0.00,,,0.00,,2013-11-15 23:52:00,
2013-11-15 19:00:00,53.0,53.0,-100.00,SE,140,5.0,-999.0,102,0.00,,,0.00,,2013-11-16 01:00:00,
2013-11-15 19:42:00,53.0,53.0,-100.00,SE,140,5.0,-999.0,102,0.00,,,0.00,,2013-11-16 01:42:00,
2013-11-15 19:52:00,53.0,53.0,-100.00,SE,140,5.0,-999.0,102,0.00,,,0.00,,2013-11-16 01:52:00,
2013-11-15 20:00:00,53.0,53.0,-100.00,SE,137,4.0,-999.0,103,0.00,,,0.00,,2013-11-16 02:00:00,
2013-11-15 20:42:00,53.0,53.0,-100.00,SE,137,4.0,-999.0,103,0.00,,,0.00,,2013-11-16 02:42:00,
2013-11-15 20:52:00,53.0,53.0,-100.00,SE,137,4.0,-999.0,103,0.00,,,0.00,,2013-11-16 02:52:00,
2013-11-15 21:00:00,55.0,55.0,-100.00,SE,131,6.0,-999.0,103,0.00,,,0.00,,2013-11-16 03:00:00,
2013-11-15 21:44:00,55.0,55.0,-100.00,SE,131,6.0,-999.0,103,0.00,,,0.00,,2013-11-16 03:44:00,
2013-11-15 21:55:00,55.0,55.0,-100.00,SE,131,6.0,-999.0,103,0.00,,,0.00,,2013-11-16 03:55:00,
2013-11-15 22:00:00,56.0,56.0,-100.00,SSE,154,4.0,-999.0,103,0.00,,,0.00,,2013-11-16 04:00:00,
2013-11-15 22:43:00,56.0,56.0,-100.00,SSE,154,4.0,-999.0,103,0.00,,,0.00,,2013-11-16 04:43:00,
2013-11-15 22:53:00,56.0,56.0,-100.00,SSE,154,4.0,-999.0,103,0.00,,,0.00,,2013-11-16 04:53:00,
2013-11-15 23:00:00,57.0,57.0,-100.00,SSE,149,8.0,-999.0,103,0.00,,,0.00,,2013-11-16 05:00:00,
2013-11-15 23:44:00,57.0,57.0,-100.00,SSE,149,8.0,-999.0,103,0.00,,,0.00,,2013-11-16 05:44:00,
2013-11-15 23:53:00,57.0,57.0,-100.00,SSE,149,8.0,-999.0,103,0.00,,,0.00,,2013-11-16 05:53:00,